createdAt,value
2023-03-05T00:00:19.182Z,660.08
2023-03-05T00:01:19.159Z,657.99
2023-03-05T00:02:19.169Z,657.49
2023-03-05T00:03:19.209Z,655.06
2023-03-05T00:04:19.129Z,656.28
2023-03-05T00:05:19.118Z,656.83
2023-03-05T00:06:19.100Z,641.79
2023-03-05T00:07:19.106Z,636.13
2023-03-05T00:08:19.091Z,639.38
2023-03-05T00:09:19.066Z,646.15
2023-03-05T00:10:19.060Z,654.13
2023-03-05T00:11:19.049Z,652.81
2023-03-05T00:12:19.043Z,652.43
2023-03-05T00:13:19.023Z,661.13
2023-03-05T00:14:19.011Z,655.10
2023-03-05T00:15:19.018Z,652.19
2023-03-05T00:16:19.056Z,651.16
2023-03-05T00:17:19.026Z,646.19
2023-03-05T00:18:18.973Z,651.74
2023-03-05T00:19:18.976Z,651.96
2023-03-05T00:20:18.946Z,650.41
2023-03-05T00:21:18.948Z,654.29
2023-03-05T00:22:18.942Z,652.95
2023-03-05T00:23:18.914Z,654.33
2023-03-05T00:24:18.902Z,659.08
2023-03-05T00:25:18.923Z,659.72
2023-03-05T00:26:18.906Z,658.58
2023-03-05T00:27:18.914Z,656.21
2023-03-05T00:28:18.869Z,656.61
2023-03-05T00:29:18.908Z,659.91
2023-03-05T00:30:18.833Z,657.52
2023-03-05T00:31:18.917Z,655.89
2023-03-05T00:32:18.840Z,659.84
2023-03-05T00:33:18.804Z,661.85
2023-03-05T00:34:18.801Z,665.75
2023-03-05T00:35:18.832Z,664.18
2023-03-05T00:36:18.781Z,657.42
2023-03-05T00:37:18.780Z,658.75
2023-03-05T00:38:18.762Z,661.37
2023-03-05T00:39:18.751Z,663.07
2023-03-05T00:40:18.803Z,660.83
2023-03-05T00:41:18.718Z,653.56
2023-03-05T00:42:18.721Z,652.16
2023-03-05T00:43:26.212Z,653.81
2023-03-05T00:44:18.691Z,653.39
2023-03-05T00:45:18.678Z,654.87
2023-03-05T00:46:18.713Z,658.66
2023-03-05T00:47:18.666Z,659.35
2023-03-05T00:48:18.640Z,655.44
2023-03-05T00:49:18.638Z,648.38
2023-03-05T00:50:18.620Z,650.42
2023-03-05T00:51:18.633Z,651.02
2023-03-05T00:52:18.612Z,652.87
2023-03-05T00:53:18.595Z,656.92
2023-03-05T00:54:18.594Z,655.21
2023-03-05T00:55:18.571Z,659.23
2023-03-05T00:56:18.559Z,661.01
2023-03-05T00:57:18.562Z,659.01
2023-03-05T00:58:18.532Z,661.22
2023-03-05T00:59:18.552Z,664.98
2023-03-05T01:00:18.523Z,662.60
2023-03-05T01:01:18.540Z,651.26
2023-03-05T01:02:18.499Z,644.98
2023-03-05T01:03:18.480Z,635.53
2023-03-05T01:04:18.473Z,636.10
2023-03-05T01:05:18.493Z,640.32
2023-03-05T01:06:18.488Z,640.50
2023-03-05T01:07:18.462Z,639.88
2023-03-05T01:08:18.432Z,642.88
2023-03-05T01:09:18.422Z,636.39
2023-03-05T01:10:18.397Z,634.69
2023-03-05T01:11:18.381Z,632.42
2023-03-05T01:12:18.376Z,640.22
2023-03-05T01:13:18.381Z,648.80
2023-03-05T01:14:18.342Z,653.45
2023-03-05T01:15:18.342Z,650.23
2023-03-05T01:16:18.500Z,645.22
2023-03-05T01:17:18.317Z,636.26
2023-03-05T01:18:18.299Z,635.14
2023-03-05T01:19:18.303Z,638.52
2023-03-05T01:20:18.276Z,641.21
2023-03-05T01:21:18.274Z,642.02
2023-03-05T01:22:18.253Z,645.94
2023-03-05T01:23:18.263Z,652.34
2023-03-05T01:24:18.251Z,652.81
2023-03-05T01:25:18.220Z,655.27
2023-03-05T01:26:18.222Z,652.81
2023-03-05T01:27:18.202Z,653.55
2023-03-05T01:28:18.225Z,653.53
2023-03-05T01:29:18.187Z,649.59
2023-03-05T01:30:18.167Z,641.28
2023-03-05T01:31:18.280Z,637.19
2023-03-05T01:32:18.230Z,633.06
2023-03-05T01:33:18.137Z,638.38
2023-03-05T01:34:18.132Z,642.98
2023-03-05T01:35:18.180Z,645.00
2023-03-05T01:36:18.100Z,645.16
2023-03-05T01:37:18.095Z,643.40
2023-03-05T01:38:18.104Z,635.29
2023-03-05T01:39:18.113Z,636.54
2023-03-05T01:40:18.064Z,638.14
2023-03-05T01:41:18.086Z,644.95
2023-03-05T01:42:18.055Z,643.02
2023-03-05T01:43:18.032Z,641.14
2023-03-05T01:44:18.043Z,638.65
2023-03-05T01:45:18.010Z,636.25
2023-03-05T01:46:18.041Z,631.91
2023-03-05T01:47:17.983Z,634.23
2023-03-05T01:48:17.976Z,635.29
2023-03-05T01:49:17.985Z,635.08
2023-03-05T01:50:17.951Z,635.56
2023-03-05T01:51:17.967Z,636.89
2023-03-05T01:52:18.170Z,636.48
2023-03-05T01:53:17.935Z,635.34
2023-03-05T01:54:17.921Z,630.30
2023-03-05T01:55:18.028Z,627.10
2023-03-05T01:56:17.890Z,627.20
2023-03-05T01:57:17.909Z,627.48
2023-03-05T01:58:17.864Z,627.25
2023-03-05T01:59:17.876Z,626.89
2023-03-05T02:00:17.839Z,626.22
2023-03-05T02:01:17.876Z,629.31
2023-03-05T02:02:17.816Z,629.97
2023-03-05T02:03:17.822Z,631.68
2023-03-05T02:04:17.795Z,628.69
2023-03-05T02:05:17.808Z,629.64
2023-03-05T02:06:17.789Z,628.69
2023-03-05T02:07:17.786Z,630.25
2023-03-05T02:08:17.784Z,626.02
2023-03-05T02:09:17.743Z,625.46
2023-03-05T02:10:17.756Z,625.91
2023-03-05T02:11:17.776Z,626.81
2023-03-05T02:12:17.722Z,626.89
2023-03-05T02:13:17.716Z,627.87
2023-03-05T02:14:17.706Z,628.30
2023-03-05T02:15:17.697Z,628.26
2023-03-05T02:16:17.727Z,626.42
2023-03-05T02:17:17.677Z,625.11
2023-03-05T02:18:17.663Z,623.77
2023-03-05T02:19:17.681Z,623.89
2023-03-05T02:20:17.634Z,624.11
2023-03-05T02:21:17.624Z,623.71
2023-03-05T02:22:17.618Z,624.02
2023-03-05T02:23:17.600Z,623.81
2023-03-05T02:24:17.586Z,625.16
2023-03-05T02:25:17.582Z,627.87
2023-03-05T02:26:17.587Z,630.91
2023-03-05T02:27:17.589Z,626.53
2023-03-05T02:28:17.542Z,626.39
2023-03-05T02:29:17.556Z,626.36
2023-03-05T02:30:17.525Z,627.99
2023-03-05T02:31:17.570Z,631.06
2023-03-05T02:32:17.571Z,628.49
2023-03-05T02:33:17.496Z,625.72
2023-03-05T02:34:17.499Z,624.85
2023-03-05T02:35:17.514Z,624.89
2023-03-05T02:36:17.463Z,623.50
2023-03-05T02:37:17.458Z,623.19
2023-03-05T02:38:17.436Z,623.97
2023-03-05T02:39:17.472Z,624.92
2023-03-05T02:40:17.427Z,627.00
2023-03-05T02:41:17.414Z,625.19
2023-03-05T02:42:17.408Z,623.93
2023-03-05T02:43:17.403Z,624.06
2023-03-05T02:44:24.886Z,624.09
2023-03-05T02:45:17.377Z,625.04
2023-03-05T02:46:17.415Z,625.03
2023-03-05T02:47:17.354Z,625.30
2023-03-05T02:48:17.324Z,625.64
2023-03-05T02:49:17.319Z,624.78
2023-03-05T02:50:17.306Z,624.93
2023-03-05T02:51:17.298Z,625.38
2023-03-05T02:52:17.295Z,625.61
2023-03-05T02:53:17.286Z,626.70
2023-03-05T02:54:17.288Z,626.05
2023-03-05T02:55:17.278Z,625.67
2023-03-05T02:56:17.242Z,625.90
2023-03-05T02:57:17.259Z,627.44
2023-03-05T02:58:17.241Z,629.74
2023-03-05T02:59:17.231Z,629.72
2023-03-05T03:00:17.199Z,626.46
2023-03-05T03:01:17.250Z,626.25
2023-03-05T03:02:17.181Z,627.71
2023-03-05T03:03:17.216Z,627.70
2023-03-05T03:04:17.196Z,625.84
2023-03-05T03:05:17.161Z,626.90
2023-03-05T03:06:17.141Z,626.81
2023-03-05T03:07:17.132Z,625.95
2023-03-05T03:08:17.127Z,625.71
2023-03-05T03:09:17.119Z,626.12
2023-03-05T03:10:17.100Z,627.21
2023-03-05T03:11:17.095Z,627.87
2023-03-05T03:12:17.084Z,625.22
2023-03-05T03:13:17.079Z,624.46
2023-03-05T03:14:17.072Z,625.83
2023-03-05T03:15:17.071Z,627.10
2023-03-05T03:16:17.037Z,627.94
2023-03-05T03:17:17.027Z,627.49
2023-03-05T03:18:17.045Z,625.58
2023-03-05T03:19:16.999Z,625.80
2023-03-05T03:20:16.997Z,626.05
2023-03-05T03:21:16.988Z,625.11
2023-03-05T03:22:16.975Z,627.12
2023-03-05T03:23:17.010Z,626.90
2023-03-05T03:24:16.946Z,627.01
2023-03-05T03:25:16.934Z,628.30
2023-03-05T03:26:16.923Z,627.22
2023-03-05T03:27:16.929Z,625.04
2023-03-05T03:28:16.901Z,623.43
2023-03-05T03:29:16.902Z,623.17
2023-03-05T03:30:16.877Z,623.24
2023-03-05T03:31:17.034Z,623.14
2023-03-05T03:32:16.945Z,623.34
2023-03-05T03:33:16.904Z,623.30
2023-03-05T03:34:16.876Z,623.47
2023-03-05T03:35:16.853Z,623.23
2023-03-05T03:36:16.821Z,623.34
2023-03-05T03:37:16.826Z,623.41
2023-03-05T03:38:16.833Z,623.67
2023-03-05T03:39:16.809Z,624.06
2023-03-05T03:40:16.788Z,625.15
2023-03-05T03:41:16.801Z,625.26
2023-03-05T03:42:16.796Z,624.52
2023-03-05T03:43:16.774Z,624.42
2023-03-05T03:44:16.732Z,624.23
2023-03-05T03:45:16.734Z,623.78
2023-03-05T03:46:16.745Z,623.35
2023-03-05T03:47:16.720Z,623.79
2023-03-05T03:48:16.716Z,624.29
2023-03-05T03:49:16.692Z,624.69
2023-03-05T03:50:16.674Z,624.52
2023-03-05T03:51:16.654Z,623.76
2023-03-05T03:52:16.647Z,623.74
2023-03-05T03:53:16.658Z,623.60
2023-03-05T03:54:16.631Z,623.11
2023-03-05T03:55:16.613Z,623.11
2023-03-05T03:56:16.615Z,623.06
2023-03-05T03:57:16.611Z,623.12
2023-03-05T03:58:16.582Z,623.22
2023-03-05T03:59:16.609Z,623.32
2023-03-05T04:00:16.590Z,623.46
2023-03-05T04:01:16.558Z,623.58
2023-03-05T04:02:16.585Z,623.67
2023-03-05T04:03:16.560Z,624.32
2023-03-05T04:04:16.613Z,623.54
2023-03-05T04:05:16.504Z,624.05
2023-03-05T04:06:16.520Z,623.58
2023-03-05T04:07:16.495Z,623.66
2023-03-05T04:08:16.494Z,623.29
2023-03-05T04:09:16.467Z,623.41
2023-03-05T04:10:16.466Z,623.52
2023-03-05T04:11:16.448Z,623.54
2023-03-05T04:12:16.436Z,623.36
2023-03-05T04:13:16.431Z,623.83
2023-03-05T04:14:16.454Z,624.95
2023-03-05T04:15:16.421Z,627.51
2023-03-05T04:16:16.499Z,628.11
2023-03-05T04:17:16.388Z,624.53
2023-03-05T04:18:16.375Z,624.74
2023-03-05T04:19:16.433Z,624.54
2023-03-05T04:20:16.370Z,623.53
2023-03-05T04:21:16.353Z,623.35
2023-03-05T04:22:16.339Z,623.32
2023-03-05T04:23:16.325Z,623.27
2023-03-05T04:24:16.336Z,623.57
2023-03-05T04:25:16.297Z,623.47
2023-03-05T04:26:16.313Z,623.66
2023-03-05T04:27:16.275Z,624.05
2023-03-05T04:28:16.279Z,623.64
2023-03-05T04:29:16.260Z,623.31
2023-03-05T04:30:16.265Z,623.43
2023-03-05T04:31:16.244Z,623.55
2023-03-05T04:32:16.275Z,623.23
2023-03-05T04:33:16.213Z,623.61
2023-03-05T04:34:16.209Z,625.13
2023-03-05T04:35:16.206Z,625.84
2023-03-05T04:36:16.177Z,624.99
2023-03-05T04:37:16.170Z,625.37
2023-03-05T04:38:16.161Z,624.89
2023-03-05T04:39:16.152Z,624.18
2023-03-05T04:40:16.184Z,624.48
2023-03-05T04:41:16.117Z,627.41
2023-03-05T04:42:16.106Z,630.43
2023-03-05T04:43:16.092Z,629.31
2023-03-05T04:44:16.093Z,628.76
2023-03-05T04:45:23.610Z,630.66
2023-03-05T04:46:16.104Z,632.60
2023-03-05T04:47:16.096Z,632.50
2023-03-05T04:48:16.045Z,630.64
2023-03-05T04:49:16.032Z,628.65
2023-03-05T04:50:16.029Z,628.25
2023-03-05T04:51:16.031Z,627.14
2023-03-05T04:52:16.000Z,625.99
2023-03-05T04:53:15.981Z,627.63
2023-03-05T04:54:15.999Z,627.66
2023-03-05T04:55:15.962Z,627.81
2023-03-05T04:56:15.966Z,626.55
2023-03-05T04:57:15.937Z,624.52
2023-03-05T04:58:15.933Z,624.90
2023-03-05T04:59:15.931Z,625.22
2023-03-05T05:00:15.918Z,625.45
2023-03-05T05:01:15.909Z,624.72
2023-03-05T05:02:15.888Z,624.62
2023-03-05T05:03:15.971Z,624.91
2023-03-05T05:04:15.882Z,625.24
2023-03-05T05:05:15.855Z,626.43
2023-03-05T05:06:15.851Z,626.92
2023-03-05T05:07:15.852Z,627.61
2023-03-05T05:08:15.851Z,625.93
2023-03-05T05:09:15.844Z,625.63
2023-03-05T05:10:15.822Z,624.98
2023-03-05T05:11:15.797Z,624.95
2023-03-05T05:12:15.785Z,628.06
2023-03-05T05:13:15.790Z,627.89
2023-03-05T05:14:15.779Z,629.14
2023-03-05T05:15:15.785Z,627.93
2023-03-05T05:16:15.811Z,627.93
2023-03-05T05:17:15.775Z,629.85
2023-03-05T05:18:15.735Z,630.69
2023-03-05T05:19:15.753Z,628.04
2023-03-05T05:20:15.702Z,628.45
2023-03-05T05:21:15.704Z,630.91
2023-03-05T05:22:15.688Z,635.30
2023-03-05T05:23:15.684Z,634.23
2023-03-05T05:24:15.666Z,632.29
2023-03-05T05:25:15.642Z,629.91
2023-03-05T05:26:15.645Z,629.47
2023-03-05T05:27:15.632Z,629.50
2023-03-05T05:28:15.612Z,625.59
2023-03-05T05:29:15.599Z,625.44
2023-03-05T05:30:15.603Z,627.26
2023-03-05T05:31:15.630Z,626.73
2023-03-05T05:32:15.652Z,625.87
2023-03-05T05:33:15.582Z,627.89
2023-03-05T05:34:15.546Z,627.34
2023-03-05T05:35:15.530Z,625.16
2023-03-05T05:36:15.537Z,624.61
2023-03-05T05:37:15.517Z,624.66
2023-03-05T05:38:15.525Z,624.74
2023-03-05T05:39:15.513Z,625.84
2023-03-05T05:40:15.497Z,625.62
2023-03-05T05:41:15.479Z,624.64
2023-03-05T05:42:15.482Z,625.34
2023-03-05T05:43:15.998Z,626.27
2023-03-05T05:44:15.448Z,626.23
2023-03-05T05:45:15.494Z,625.59
2023-03-05T05:46:15.633Z,624.78
2023-03-05T05:47:15.410Z,625.15
2023-03-05T05:48:15.403Z,625.01
2023-03-05T05:49:15.397Z,624.29
2023-03-05T05:50:15.394Z,623.24
2023-03-05T05:51:15.369Z,623.12
2023-03-05T05:52:15.359Z,623.13
2023-03-05T05:53:15.347Z,623.13
2023-03-05T05:54:15.342Z,623.15
2023-03-05T05:55:15.360Z,623.13
2023-03-05T05:56:15.329Z,623.12
2023-03-05T05:57:15.326Z,623.16
2023-03-05T05:58:15.297Z,623.10
2023-03-05T05:59:15.290Z,623.14
2023-03-05T06:00:15.274Z,623.17
2023-03-05T06:01:15.305Z,623.17
2023-03-05T06:02:15.293Z,623.19
2023-03-05T06:03:15.334Z,623.22
2023-03-05T06:04:15.275Z,623.24
2023-03-05T06:05:15.237Z,623.33
2023-03-05T06:06:15.218Z,623.31
2023-03-05T06:07:15.216Z,623.19
2023-03-05T06:08:15.212Z,623.17
2023-03-05T06:09:15.178Z,623.12
2023-03-05T06:10:15.183Z,623.12
2023-03-05T06:11:16.768Z,623.08
2023-03-05T06:12:15.167Z,623.07
2023-03-05T06:13:15.135Z,623.01
2023-03-05T06:14:15.128Z,623.00
2023-03-05T06:15:15.148Z,622.99
2023-03-05T06:16:15.126Z,622.98
2023-03-05T06:17:25.151Z,622.97
2023-03-05T06:18:16.110Z,622.96
2023-03-05T06:19:15.067Z,622.95
2023-03-05T06:20:15.072Z,622.98
2023-03-05T06:21:15.079Z,623.00
2023-03-05T06:22:15.050Z,622.99
2023-03-05T06:23:15.024Z,623.01
2023-03-05T06:24:15.052Z,623.01
2023-03-05T06:25:15.030Z,623.00
2023-03-05T06:26:15.024Z,622.99
2023-03-05T06:27:15.001Z,622.95
2023-03-05T06:28:14.977Z,622.97
2023-03-05T06:29:14.978Z,622.93
2023-03-05T06:30:14.953Z,622.92
2023-03-05T06:31:15.047Z,622.97
2023-03-05T06:32:14.987Z,623.03
2023-03-05T06:33:14.915Z,622.98
2023-03-05T06:34:14.941Z,622.99
2023-03-05T06:35:14.902Z,622.97
2023-03-05T06:36:14.915Z,622.99
2023-03-05T06:37:14.910Z,622.98
2023-03-05T06:38:14.880Z,622.97
2023-03-05T06:39:14.850Z,622.93
2023-03-05T06:40:14.850Z,622.95
2023-03-05T06:41:14.850Z,622.92
2023-03-05T06:42:14.840Z,622.90
2023-03-05T06:43:14.844Z,622.92
2023-03-05T06:44:14.807Z,622.94
2023-03-05T06:45:14.801Z,622.94
2023-03-05T06:46:22.355Z,623.00
2023-03-05T06:47:14.763Z,622.93
2023-03-05T06:48:14.757Z,622.92
2023-03-05T06:49:14.756Z,622.94
2023-03-05T06:50:14.742Z,623.00
2023-03-05T06:51:14.733Z,623.00
2023-03-05T06:52:14.720Z,622.96
2023-03-05T06:53:14.724Z,622.95
2023-03-05T06:54:14.723Z,622.94
2023-03-05T06:55:14.698Z,622.94
2023-03-05T06:56:14.686Z,622.99
2023-03-05T06:57:14.673Z,623.01
2023-03-05T06:58:14.654Z,622.97
2023-03-05T06:59:14.670Z,622.95
2023-03-05T07:00:14.644Z,622.97
2023-03-05T07:01:14.682Z,622.93
2023-03-05T07:02:14.655Z,622.94
2023-03-05T07:03:14.606Z,622.92
2023-03-05T07:04:14.587Z,622.95
2023-03-05T07:05:14.593Z,622.91
2023-03-05T07:06:14.590Z,622.96
2023-03-05T07:07:14.573Z,622.91
2023-03-05T07:08:14.544Z,622.89
2023-03-05T07:09:14.542Z,622.93
2023-03-05T07:10:14.547Z,622.98
2023-03-05T07:11:14.510Z,622.95
2023-03-05T07:12:14.538Z,622.94
2023-03-05T07:13:14.502Z,622.93
2023-03-05T07:14:14.508Z,622.97
2023-03-05T07:15:14.511Z,622.96
2023-03-05T07:16:14.563Z,622.94
2023-03-05T07:17:14.477Z,622.91
2023-03-05T07:18:14.441Z,622.92
2023-03-05T07:19:14.419Z,622.92
2023-03-05T07:20:14.432Z,622.92
2023-03-05T07:21:14.399Z,623.03
2023-03-05T07:22:14.400Z,623.01
2023-03-05T07:23:14.392Z,623.00
2023-03-05T07:24:14.372Z,623.01
2023-03-05T07:25:14.359Z,623.03
2023-03-05T07:26:14.351Z,623.00
2023-03-05T07:27:14.349Z,623.02
2023-03-05T07:28:14.340Z,622.99
2023-03-05T07:29:14.315Z,622.98
2023-03-05T07:30:14.314Z,623.02
2023-03-05T07:31:14.382Z,623.00
2023-03-05T07:32:14.338Z,623.01
2023-03-05T07:33:14.274Z,622.99
2023-03-05T07:34:14.266Z,623.05
2023-03-05T07:35:14.263Z,623.03
2023-03-05T07:36:14.261Z,623.01
2023-03-05T07:37:14.244Z,622.93
2023-03-05T07:38:14.222Z,622.99
2023-03-05T07:39:14.206Z,622.98
2023-03-05T07:40:14.225Z,622.92
2023-03-05T07:41:14.198Z,622.91
2023-03-05T07:42:14.323Z,622.92
2023-03-05T07:43:14.180Z,622.95
2023-03-05T07:44:14.171Z,622.95
2023-03-05T07:45:14.212Z,622.86
2023-03-05T07:46:14.251Z,622.93
2023-03-05T07:47:14.161Z,623.00
2023-03-05T07:48:14.157Z,623.01
2023-03-05T07:49:14.109Z,622.98
2023-03-05T07:50:14.127Z,622.99
2023-03-05T07:51:14.131Z,622.96
2023-03-05T07:52:14.104Z,622.97
2023-03-05T07:53:14.068Z,622.98
2023-03-05T07:54:14.085Z,622.96
2023-03-05T07:55:14.040Z,622.98
2023-03-05T07:56:14.056Z,622.99
2023-03-05T07:57:14.017Z,622.97
2023-03-05T07:58:14.019Z,622.99
2023-03-05T07:59:14.024Z,622.94
2023-03-05T08:00:13.984Z,622.97
2023-03-05T08:01:13.994Z,622.92
2023-03-05T08:02:14.044Z,622.93
2023-03-05T08:03:13.969Z,622.85
2023-03-05T08:04:13.998Z,622.86
2023-03-05T08:05:13.943Z,622.93
2023-03-05T08:06:13.928Z,622.93
2023-03-05T08:07:13.914Z,622.86
2023-03-05T08:08:13.894Z,622.95
2023-03-05T08:09:13.908Z,622.98
2023-03-05T08:10:13.900Z,622.93
2023-03-05T08:11:13.893Z,622.96
2023-03-05T08:12:13.893Z,622.94
2023-03-05T08:13:13.841Z,622.89
2023-03-05T08:14:13.866Z,622.93
2023-03-05T08:15:13.826Z,622.92
2023-03-05T08:16:13.875Z,622.90
2023-03-05T08:17:13.817Z,622.91
2023-03-05T08:18:13.795Z,622.96
2023-03-05T08:19:13.801Z,622.95
2023-03-05T08:20:13.793Z,622.87
2023-03-05T08:21:13.757Z,622.91
2023-03-05T08:22:13.764Z,622.92
2023-03-05T08:23:13.749Z,622.92
2023-03-05T08:24:13.733Z,622.89
2023-03-05T08:25:13.733Z,622.92
2023-03-05T08:26:13.711Z,622.94
2023-03-05T08:27:13.713Z,622.95
2023-03-05T08:28:13.680Z,622.91
2023-03-05T08:29:13.675Z,622.93
2023-03-05T08:30:13.660Z,622.96
2023-03-05T08:31:13.681Z,623.02
2023-03-05T08:32:13.661Z,623.05
2023-03-05T08:33:13.629Z,622.98
2023-03-05T08:34:13.621Z,622.91
2023-03-05T08:35:13.638Z,622.97
2023-03-05T08:36:13.620Z,622.98
2023-03-05T08:37:13.589Z,622.96
2023-03-05T08:38:13.582Z,623.01
2023-03-05T08:39:13.564Z,623.00
2023-03-05T08:40:13.549Z,623.01
2023-03-05T08:41:14.077Z,623.03
2023-03-05T08:42:13.526Z,623.04
2023-03-05T08:43:13.519Z,623.02
2023-03-05T08:44:13.508Z,623.02
2023-03-05T08:45:13.533Z,623.04
2023-03-05T08:46:13.595Z,623.00
2023-03-05T08:47:20.975Z,623.04
2023-03-05T08:48:13.464Z,623.07
2023-03-05T08:49:13.457Z,622.96
2023-03-05T08:50:13.442Z,622.96
2023-03-05T08:51:13.498Z,623.01
2023-03-05T08:52:13.431Z,623.01
2023-03-05T08:53:13.414Z,622.99
2023-03-05T08:54:13.396Z,623.00
2023-03-05T08:55:13.393Z,622.98
2023-03-05T08:56:13.389Z,622.96
2023-03-05T08:57:13.367Z,622.96
2023-03-05T08:58:13.398Z,622.94
2023-03-05T08:59:13.813Z,622.97
2023-03-05T09:00:13.335Z,622.99
2023-03-05T09:01:13.345Z,622.97
2023-03-05T09:02:13.432Z,622.99
2023-03-05T09:03:13.369Z,623.00
2023-03-05T09:04:13.305Z,623.00
2023-03-05T09:05:13.301Z,623.11
2023-03-05T09:06:13.276Z,623.02
2023-03-05T09:07:13.288Z,622.94
2023-03-05T09:08:13.275Z,622.99
2023-03-05T09:09:13.261Z,622.97
2023-03-05T09:10:13.228Z,623.02
2023-03-05T09:11:13.238Z,623.38
2023-03-05T09:12:13.232Z,623.03
2023-03-05T09:13:13.204Z,622.99
2023-03-05T09:14:13.195Z,623.02
2023-03-05T09:15:13.188Z,623.04
2023-03-05T09:16:13.217Z,623.07
2023-03-05T09:17:13.166Z,623.09
2023-03-05T09:18:13.160Z,623.33
2023-03-05T09:19:13.137Z,623.45
2023-03-05T09:20:13.123Z,623.99
2023-03-05T09:21:13.129Z,624.18
2023-03-05T09:22:13.111Z,625.13
2023-03-05T09:23:13.109Z,625.47
2023-03-05T09:24:13.080Z,624.33
2023-03-05T09:25:13.135Z,624.24
2023-03-05T09:26:13.072Z,624.82
2023-03-05T09:27:13.103Z,625.12
2023-03-05T09:28:13.038Z,625.79
2023-03-05T09:29:13.026Z,625.16
2023-03-05T09:30:13.057Z,624.15
2023-03-05T09:31:13.022Z,624.41
2023-03-05T09:32:13.082Z,626.10
2023-03-05T09:33:12.981Z,626.76
2023-03-05T09:34:12.976Z,626.41
2023-03-05T09:35:12.987Z,626.33
2023-03-05T09:36:12.952Z,626.89
2023-03-05T09:37:12.956Z,628.69
2023-03-05T09:38:12.951Z,630.91
2023-03-05T09:39:12.943Z,629.02
2023-03-05T09:40:12.914Z,627.23
2023-03-05T09:41:12.914Z,626.85
2023-03-05T09:42:12.876Z,628.76
2023-03-05T09:43:12.931Z,629.06
2023-03-05T09:44:12.877Z,627.94
2023-03-05T09:45:12.882Z,627.20
2023-03-05T09:46:12.921Z,627.88
2023-03-05T09:47:13.762Z,628.00
2023-03-05T09:48:12.829Z,628.50
2023-03-05T09:49:12.807Z,630.99
2023-03-05T09:50:12.793Z,632.14
2023-03-05T09:51:12.785Z,633.74
2023-03-05T09:52:12.792Z,635.65
2023-03-05T09:53:12.874Z,635.17
2023-03-05T09:54:12.753Z,636.38
2023-03-05T09:55:12.763Z,638.33
2023-03-05T09:56:12.764Z,638.86
2023-03-05T09:57:12.720Z,638.36
2023-03-05T09:58:12.721Z,635.25
2023-03-05T09:59:12.710Z,635.37
2023-03-05T10:00:12.716Z,638.25
2023-03-05T10:01:12.683Z,639.64
2023-03-05T10:02:12.680Z,640.59
2023-03-05T10:03:12.776Z,641.67
2023-03-05T10:04:12.755Z,644.33
2023-03-05T10:05:12.633Z,644.72
2023-03-05T10:06:12.643Z,644.40
2023-03-05T10:07:12.632Z,645.00
2023-03-05T10:08:12.609Z,644.07
2023-03-05T10:09:12.612Z,645.12
2023-03-05T10:10:12.600Z,647.13
2023-03-05T10:11:12.588Z,646.92
2023-03-05T10:12:12.584Z,646.82
2023-03-05T10:13:12.629Z,653.49
2023-03-05T10:14:12.530Z,650.94
2023-03-05T10:15:12.537Z,650.90
2023-03-05T10:16:12.555Z,652.44
2023-03-05T10:17:12.509Z,652.08
2023-03-05T10:18:12.501Z,653.25
2023-03-05T10:19:12.488Z,654.29
2023-03-05T10:20:12.471Z,654.57
2023-03-05T10:21:12.463Z,655.92
2023-03-05T10:22:12.459Z,661.73
2023-03-05T10:23:12.473Z,664.01
2023-03-05T10:24:12.430Z,665.96
2023-03-05T10:25:12.434Z,666.16
2023-03-05T10:26:12.413Z,668.12
2023-03-05T10:27:12.481Z,666.40
2023-03-05T10:28:12.419Z,667.57
2023-03-05T10:29:12.376Z,667.82
2023-03-05T10:30:12.367Z,666.00
2023-03-05T10:31:12.349Z,668.12
2023-03-05T10:32:12.483Z,670.53
2023-03-05T10:33:12.362Z,672.65
2023-03-05T10:34:12.320Z,674.07
2023-03-05T10:35:12.308Z,669.78
2023-03-05T10:36:12.317Z,669.53
2023-03-05T10:37:12.289Z,666.77
2023-03-05T10:38:12.348Z,664.38
2023-03-05T10:39:12.293Z,663.62
2023-03-05T10:40:12.273Z,661.89
2023-03-05T10:41:12.242Z,663.78
2023-03-05T10:42:12.272Z,660.64
2023-03-05T10:43:12.300Z,662.95
2023-03-05T10:44:12.224Z,658.80
2023-03-05T10:45:14.064Z,660.52
2023-03-05T10:46:12.249Z,658.26
2023-03-05T10:47:12.196Z,659.71
2023-03-05T10:48:19.700Z,661.08
2023-03-05T10:49:12.166Z,661.76
2023-03-05T10:50:12.141Z,660.83
2023-03-05T10:51:12.135Z,660.44
2023-03-05T10:52:12.128Z,660.29
2023-03-05T10:53:12.149Z,664.13
2023-03-05T10:54:12.097Z,665.48
2023-03-05T10:55:12.091Z,664.63
2023-03-05T10:56:12.088Z,660.87
2023-03-05T10:57:12.080Z,661.00
2023-03-05T10:58:12.091Z,661.11
2023-03-05T10:59:12.066Z,660.66
2023-03-05T11:00:12.046Z,660.51
2023-03-05T11:01:12.090Z,662.05
2023-03-05T11:02:12.028Z,661.31
2023-03-05T11:03:12.077Z,659.94
2023-03-05T11:04:12.000Z,658.02
2023-03-05T11:05:11.982Z,660.20
2023-03-05T11:06:11.981Z,662.54
2023-03-05T11:07:11.955Z,663.09
2023-03-05T11:08:11.940Z,664.20
2023-03-05T11:09:12.002Z,666.45
2023-03-05T11:10:11.943Z,669.26
2023-03-05T11:11:11.960Z,669.59
2023-03-05T11:12:11.908Z,667.73
2023-03-05T11:13:11.927Z,668.40
2023-03-05T11:14:11.875Z,669.11
2023-03-05T11:15:11.901Z,673.06
2023-03-05T11:16:11.896Z,677.38
2023-03-05T11:17:11.850Z,684.69
2023-03-05T11:18:11.837Z,686.94
2023-03-05T11:19:11.832Z,685.47
2023-03-05T11:20:11.849Z,686.85
2023-03-05T11:21:11.804Z,689.86
2023-03-05T11:22:11.787Z,693.15
2023-03-05T11:23:11.916Z,698.85
2023-03-05T11:24:11.767Z,699.74
2023-03-05T11:25:11.756Z,696.41
2023-03-05T11:26:11.755Z,694.62
2023-03-05T11:27:11.733Z,697.70
2023-03-05T11:28:13.735Z,700.76
2023-03-05T11:29:11.752Z,700.61
2023-03-05T11:30:11.737Z,707.13
2023-03-05T11:31:11.774Z,705.49
2023-03-05T11:32:11.747Z,702.57
2023-03-05T11:33:11.746Z,702.16
2023-03-05T11:34:11.656Z,705.05
2023-03-05T11:35:11.671Z,704.09
2023-03-05T11:36:11.648Z,708.15
2023-03-05T11:37:11.624Z,708.33
2023-03-05T11:38:11.621Z,710.26
2023-03-05T11:39:12.125Z,708.66
2023-03-05T11:40:11.607Z,706.23
2023-03-05T11:41:11.608Z,705.04
2023-03-05T11:42:11.583Z,708.73
2023-03-05T11:43:11.607Z,713.25
2023-03-05T11:44:13.350Z,714.66
2023-03-05T11:45:11.538Z,710.18
2023-03-05T11:46:11.615Z,711.19
2023-03-05T11:47:11.559Z,707.51
2023-03-05T11:48:11.506Z,716.01
2023-03-05T11:49:11.506Z,718.21
2023-03-05T11:50:11.529Z,717.44
2023-03-05T11:51:11.504Z,728.50
2023-03-05T11:52:11.497Z,722.96
2023-03-05T11:53:11.464Z,713.06
2023-03-05T11:54:11.441Z,714.62
2023-03-05T11:55:11.496Z,716.30
2023-03-05T11:56:11.426Z,718.64
2023-03-05T11:57:11.427Z,724.24
2023-03-05T11:58:11.441Z,726.17
2023-03-05T11:59:11.424Z,724.63
2023-03-05T12:00:11.391Z,722.13
2023-03-05T12:01:11.376Z,724.05
2023-03-05T12:02:11.358Z,724.07
2023-03-05T12:03:11.525Z,722.67
2023-03-05T12:04:11.401Z,723.55
2023-03-05T12:05:11.336Z,724.28
2023-03-05T12:06:11.316Z,730.29
2023-03-05T12:07:11.316Z,741.35
2023-03-05T12:08:11.299Z,753.39
2023-03-05T12:09:11.282Z,751.94
2023-03-05T12:10:11.276Z,756.76
2023-03-05T12:11:11.288Z,759.01
2023-03-05T12:12:11.273Z,751.88
2023-03-05T12:13:11.268Z,752.67
2023-03-05T12:14:11.239Z,749.04
2023-03-05T12:15:11.216Z,752.04
2023-03-05T12:16:11.323Z,752.25
2023-03-05T12:17:11.210Z,749.04
2023-03-05T12:18:11.194Z,756.46
2023-03-05T12:19:11.214Z,753.06
2023-03-05T12:20:11.188Z,753.13
2023-03-05T12:21:11.156Z,752.10
2023-03-05T12:22:11.164Z,748.00
2023-03-05T12:23:11.147Z,743.09
2023-03-05T12:24:11.153Z,745.71
2023-03-05T12:25:11.108Z,748.85
2023-03-05T12:26:11.100Z,740.94
2023-03-05T12:27:11.103Z,744.97
2023-03-05T12:28:11.083Z,747.38